Time;durP1;ratioP1;P1;durP2;ratioP2;P2;SDS_P1;SDS_P2;PMS_P1;PMS_P2;Temp;Humidity;BMP_temperature;BMP_pressure;BME280_temperature;BME280_humidity;BME280_pressure;Samples;Min_cycle;Max_cycle;Signal;HPM_P1;HPM_P2
2024/02/10 00:00:56;;;;;;;6.25;5.03;;;;;;;12.93;96.76;95900.72;5072797;28;20020;-48
2024/02/10 00:03:23;;;;;;;4.28;2.97;;;;;;;12.81;98.13;95904.84;5072700;28;20016;-48
2024/02/10 00:05:48;;;;;;;64.35;58.67;;;;;;;12.93;100.00;95895.47;5072692;28;20036;-48
2024/02/10 00:08:14;;;;;;;12.40;10.27;;;;;;;13.02;99.62;95894.84;5072671;28;20478;-48
2024/02/10 00:10:43;;;;;;;4.97;2.33;;;;;;;13.03;100.00;95881.38;5072566;28;20394;-48
2024/02/10 00:13:11;;;;;;;5.25;2.63;;;;;;;12.70;96.62;95878.69;5072589;28;20028;-47
2024/02/10 00:15:40;;;;;;;4.43;2.58;;;;;;;12.35;97.43;95887.78;5072380;28;20524;-48
2024/02/10 00:18:08;;;;;;;6.78;6.05;;;;;;;12.14;100.00;95879.34;5072468;28;20052;-48
2024/02/10 00:20:34;;;;;;;16.70;14.93;;;;;;;12.28;100.00;95884.72;5072359;28;20024;-48
2024/02/10 00:23:00;;;;;;;8.35;5.20;;;;;;;12.29;100.00;95881.00;5072366;28;20046;-48
2024/02/10 00:25:26;;;;;;;84.95;77.03;;;;;;;12.24;100.00;95863.44;5072265;28;20025;-47
2024/02/10 00:27:53;;;;;;;9.68;8.57;;;;;;;12.17;100.00;95863.78;5070987;28;20035;-48
2024/02/10 00:30:19;;;;;;;11.68;6.88;;;;;;;12.01;100.00;95859.72;5072448;28;20031;-48
2024/02/10 00:32:51;;;;;;;10.10;3.22;;;;;;;11.86;100.00;95844.09;5072209;28;20028;-47
2024/02/10 00:35:21;;;;;;;6.03;3.55;;;;;;;11.90;100.00;95848.56;5072039;28;20035;-48
2024/02/10 00:37:48;;;;;;;6.10;4.80;;;;;;;11.89;100.00;95844.38;5072110;28;20041;-47
2024/02/10 00:40:14;;;;;;;24.38;22.08;;;;;;;11.97;100.00;95848.22;5070755;28;20022;-48
2024/02/10 00:42:40;;;;;;;48.03;43.55;;;;;;;11.90;100.00;95832.00;5070784;28;20486;-47
2024/02/10 00:45:07;;;;;;;179.77;161.60;;;;;;;11.83;100.00;95840.19;5070682;28;20028;-47
2024/02/10 00:47:35;;;;;;;34.90;31.13;;;;;;;11.88;100.00;95836.72;5071890;28;20094;-48
2024/02/10 00:50:03;;;;;;;11.45;9.05;;;;;;;12.06;100.00;95840.50;5071887;28;20052;-48
2024/02/10 00:52:29;;;;;;;34.05;27.25;;;;;;;11.93;100.00;95828.81;5071728;28;20028;-48
2024/02/10 00:54:56;;;;;;;8.52;5.82;;;;;;;11.92;100.00;95829.88;5072102;28;20025;-48
2024/02/10 00:57:22;;;;;;;8.98;4.68;;;;;;;11.80;100.00;95822.34;5071828;28;20025;-48
2024/02/10 00:59:48;;;;;;;8.13;5.20;;;;;;;11.72;100.00;95813.22;5071764;28;20027;-47
2024/02/10 01:02:17;;;;;;;10.63;6.28;;;;;;;11.77;100.00;95809.75;5071817;28;20016;-48
2024/02/10 01:04:44;;;;;;;7.95;4.40;;;;;;;12.10;100.00;95813.38;5071787;28;20021;-48
2024/02/10 01:07:12;;;;;;;8.15;6.28;;;;;;;12.43;100.00;95810.88;5070549;28;20103;-48
2024/02/10 01:09:41;;;;;;;9.40;7.82;;;;;;;12.90;100.00;95809.19;5071517;28;20024;-48
2024/02/10 01:12:06;;;;;;;7.97;4.22;;;;;;;13.18;100.00;95811.94;5071714;28;20082;-48
2024/02/10 01:14:32;;;;;;;4.65;3.53;;;;;;;13.35;100.00;95800.88;5071804;28;20033;-48
2024/02/10 01:16:58;;;;;;;14.02;4.72;;;;;;;13.58;100.00;95807.06;5071481;28;20091;-48
2024/02/10 01:19:27;;;;;;;6.25;4.20;;;;;;;13.75;100.00;95802.03;5071911;28;20095;-48
2024/02/10 01:21:55;;;;;;;16.75;13.32;;;;;;;13.97;100.00;95800.59;5070317;28;20559;-48
2024/02/10 01:24:22;;;;;;;7.20;4.88;;;;;;;14.16;100.00;95797.84;5071616;28;20509;-48
2024/02/10 01:26:50;;;;;;;5.68;4.40;;;;;;;14.25;98.08;95790.03;5070314;28;20025;-48
2024/02/10 01:29:15;;;;;;;12.38;6.68;;;;;;;13.78;90.34;95779.56;5071594;28;20017;-48
2024/02/10 01:31:41;;;;;;;11.32;4.90;;;;;;;13.27;91.74;95781.22;5071565;28;20085;-48
2024/02/10 01:34:08;;;;;;;7.10;4.95;;;;;;;13.13;91.65;95769.88;5071393;28;20032;-48
2024/02/10 01:36:34;;;;;;;6.03;4.45;;;;;;;12.77;92.09;95757.25;5071459;28;20498;-48
2024/02/10 01:39:01;;;;;;;11.10;10.00;;;;;;;12.59;94.64;95767.50;5071821;28;20036;-47
2024/02/10 01:41:29;;;;;;;8.30;5.85;;;;;;;12.38;92.73;95758.34;5070098;28;20565;-48
2024/02/10 01:43:55;;;;;;;18.70;16.73;;;;;;;12.25;94.04;95754.56;5053821;28;20029;-48
2024/02/10 01:46:25;;;;;;;6.50;4.85;;;;;;;12.09;96.34;95746.09;5070087;28;20039;-48
2024/02/10 01:48:55;;;;;;;13.63;10.75;;;;;;;12.05;98.36;95744.31;5071461;28;20029;-48
2024/02/10 01:51:23;;;;;;;15.30;13.73;;;;;;;12.24;97.08;95734.59;5071583;28;20054;-48
2024/02/10 01:53:50;;;;;;;14.95;12.13;;;;;;;12.52;98.89;95737.38;5071821;28;20074;-48
2024/02/10 01:56:17;;;;;;;9.48;6.78;;;;;;;12.53;94.33;95728.41;5069875;28;20077;-48
2024/02/10 01:58:47;;;;;;;8.80;5.18;;;;;;;12.49;94.12;95735.31;5070020;28;20571;-48
2024/02/10 02:01:17;;;;;;;5.63;3.55;;;;;;;12.41;94.20;95720.94;5069914;28;20023;-48
2024/02/10 02:03:43;;;;;;;7.07;3.25;;;;;;;12.36;92.10;95719.19;5071230;28;20375;-48
2024/02/10 02:06:11;;;;;;;4.90;3.85;;;;;;;12.27;93.47;95725.34;5071433;28;20108;-48
2024/02/10 02:08:38;;;;;;;5.20;2.65;;;;;;;12.14;92.07;95722.38;5071221;28;20039;-48
2024/02/10 02:11:04;;;;;;;6.88;4.63;;;;;;;12.03;92.54;95713.03;5069795;28;20027;-48
2024/02/10 02:13:31;;;;;;;5.35;3.28;;;;;;;12.11;94.54;95712.44;5071100;28;20025;-48
2024/02/10 02:15:58;;;;;;;5.25;3.08;;;;;;;12.26;95.52;95708.81;5070721;28;20083;-48
2024/02/10 02:18:24;;;;;;;4.95;4.18;;;;;;;12.41;97.77;95707.81;5069775;28;20021;-48
2024/02/10 02:20:50;;;;;;;8.00;4.88;;;;;;;12.40;97.03;95701.00;5069901;28;20048;-48
2024/02/10 02:23:19;;;;;;;6.10;5.47;;;;;;;12.25;97.28;95694.09;5073774;28;20059;-48
2024/02/10 02:25:49;;;;;;;7.18;4.72;;;;;;;12.32;100.00;95685.84;5074485;28;20055;-48
2024/02/10 02:28:18;;;;;;;7.78;4.30;;;;;;;12.24;95.20;95673.34;5074552;28;20024;-48
2024/02/10 02:30:45;;;;;;;6.03;4.38;;;;;;;12.05;92.59;95673.34;5074539;28;20028;-48
2024/02/10 02:33:11;;;;;;;4.80;3.90;;;;;;;11.78;92.77;95669.47;5074509;28;20016;-48
2024/02/10 02:35:43;;;;;;;4.68;3.90;;;;;;;11.83;95.00;95666.78;5074426;28;20456;-48
2024/02/10 02:38:09;;;;;;;4.75;3.20;;;;;;;11.86;93.93;95668.81;5074353;28;20081;-48
2024/02/10 02:40:35;;;;;;;4.50;3.33;;;;;;;11.75;93.72;95672.63;5073078;28;20067;-48
2024/02/10 02:43:05;;;;;;;6.75;3.90;;;;;;;11.76;95.56;95663.69;5073027;28;20056;-48
2024/02/10 02:45:30;;;;;;;7.32;3.53;;;;;;;11.73;98.01;95662.44;5072963;28;20063;-48
2024/02/10 02:48:03;;;;;;;6.97;4.50;;;;;;;11.90;100.00;95661.97;5074281;28;20052;-48
2024/02/10 02:50:30;;;;;;;5.35;4.00;;;;;;;12.08;100.00;95655.16;5074139;28;20074;-48
2024/02/10 02:53:03;;;;;;;4.85;3.25;;;;;;;12.35;100.00;95656.34;5074112;28;20025;-48
2024/02/10 02:55:29;;;;;;;7.38;3.63;;;;;;;12.29;100.00;95660.13;5073921;28;20154;-48
2024/02/10 02:57:58;;;;;;;4.60;3.53;;;;;;;12.17;100.00;95661.34;5056188;28;20020;-47
2024/02/10 03:00:24;;;;;;;4.82;2.92;;;;;;;12.13;100.00;95662.19;5073960;28;20029;-48
2024/02/10 03:02:51;;;;;;;5.22;2.97;;;;;;;12.14;100.00;95656.66;5074035;28;20097;-48
2024/02/10 03:05:17;;;;;;;4.95;3.42;;;;;;;12.18;100.00;95657.63;5073852;28;20025;-48
2024/02/10 03:07:44;;;;;;;4.20;2.95;;;;;;;12.32;100.00;95654.31;5073932;28;20059;-47
2024/02/10 03:10:11;;;;;;;5.82;2.42;;;;;;;12.52;100.00;95647.94;5073791;28;20103;-48
2024/02/10 03:12:37;;;;;;;9.85;8.80;;;;;;;12.47;100.00;95646.16;5073870;28;20020;-48
2024/02/10 03:15:04;;;;;;;5.78;3.33;;;;;;;12.46;100.00;95649.88;5073391;28;20132;-48
2024/02/10 03:17:31;;;;;;;5.80;4.40;;;;;;;12.52;100.00;95643.47;5073754;28;20032;-48
2024/02/10 03:19:58;;;;;;;4.38;3.00;;;;;;;12.51;100.00;95636.63;5073692;28;20017;-48
2024/02/10 03:22:24;;;;;;;4.70;4.20;;;;;;;12.38;100.00;95629.50;5073541;28;20025;-48
2024/02/10 03:24:53;;;;;;;3.40;2.60;;;;;;;12.38;99.37;95632.91;5072240;28;20569;-48
2024/02/10 03:27:20;;;;;;;7.55;5.03;;;;;;;12.46;96.90;95634.09;5073427;28;20510;-48
2024/02/10 03:29:46;;;;;;;4.18;3.20;;;;;;;12.70;91.97;95639.22;5073460;28;20027;-48
2024/02/10 03:32:16;;;;;;;11.07;7.50;;;;;;;12.85;90.72;95637.41;5072029;28;20113;-46
2024/02/10 03:34:42;;;;;;;3.58;2.85;;;;;;;12.96;91.20;95638.81;5071946;28;20056;-46
2024/02/10 03:37:09;;;;;;;8.32;7.30;;;;;;;12.82;89.49;95638.78;5071995;28;20512;-46
2024/02/10 03:39:36;;;;;;;4.38;2.50;;;;;;;12.44;93.04;95636.22;5071938;28;20017;-46
2024/02/10 03:42:04;;;;;;;5.25;4.45;;;;;;;12.05;95.04;95639.94;5073173;28;20024;-46
2024/02/10 03:44:30;;;;;;;11.73;6.88;;;;;;;11.68;98.42;95632.81;5071805;28;20561;-46
2024/02/10 03:47:00;;;;;;;8.05;3.38;;;;;;;11.46;100.00;95628.09;5071772;28;20071;-46
2024/02/10 03:49:30;;;;;;;8.02;2.80;;;;;;;11.07;99.62;95635.06;5073316;28;20021;-46
2024/02/10 03:51:58;;;;;;;6.20;3.97;;;;;;;10.74;100.00;95628.81;5073002;28;20055;-46
2024/02/10 03:54:24;;;;;;;13.32;12.07;;;;;;;10.53;100.00;95639.50;5071623;28;20021;-46
2024/02/10 03:56:51;;;;;;;6.25;5.65;;;;;;;10.45;100.00;95634.84;5072867;28;20040;-46
2024/02/10 03:59:17;;;;;;;9.90;8.25;;;;;;;10.45;100.00;95636.69;5072834;28;20025;-46
2024/02/10 04:01:45;;;;;;;6.75;4.97;;;;;;;10.36;100.00;95626.00;5072786;28;20029;-46
2024/02/10 04:04:10;;;;;;;6.00;4.90;;;;;;;10.33;100.00;95632.56;5072782;28;20101;-46
2024/02/10 04:06:37;;;;;;;11.82;5.78;;;;;;;10.30;100.00;95632.34;5072687;28;20498;-46
2024/02/10 04:09:06;;;;;;;6.75;4.70;;;;;;;10.42;100.00;95622.28;5072545;28;20104;-46
2024/02/10 04:11:33;;;;;;;7.15;6.25;;;;;;;10.36;100.00;95618.94;5072787;28;20035;-46
2024/02/10 04:14:00;;;;;;;19.75;18.05;;;;;;;10.27;100.00;95625.78;5072653;28;20554;-46
2024/02/10 04:16:26;;;;;;;8.07;5.63;;;;;;;10.19;100.00;95627.13;5072118;28;20064;-45
2024/02/10 04:18:59;;;;;;;9.55;7.00;;;;;;;10.17;100.00;95626.63;5071253;28;20054;-44
2024/02/10 04:21:25;;;;;;;6.85;5.63;;;;;;;10.16;100.00;95619.84;5072421;28;20502;-44
2024/02/10 04:23:51;;;;;;;7.82;6.03;;;;;;;10.11;100.00;95625.09;5072378;28;20107;-44
2024/02/10 04:26:18;;;;;;;8.27;5.75;;;;;;;10.08;100.00;95625.66;5072283;28;20028;-44
2024/02/10 04:28:44;;;;;;;9.80;6.80;;;;;;;10.01;100.00;95625.16;5071062;28;20120;-43
2024/02/10 04:31:10;;;;;;;8.30;6.97;;;;;;;9.95;100.00;95627.03;5072256;28;20055;-43
2024/02/10 04:33:36;;;;;;;9.07;7.63;;;;;;;9.99;100.00;95622.03;5072227;28;20039;-43
2024/02/10 04:36:02;;;;;;;9.27;7.15;;;;;;;9.94;100.00;95619.44;5072101;28;20020;-44
2024/02/10 04:38:28;;;;;;;10.00;8.77;;;;;;;9.87;100.00;95621.59;5070829;28;20070;-43
2024/02/10 04:40:54;;;;;;;12.73;7.03;;;;;;;9.80;100.00;95622.69;5072160;28;20016;-44
2024/02/10 04:43:20;;;;;;;13.60;10.13;;;;;;;9.67;100.00;95630.34;5072145;28;20513;-43
2024/02/10 04:45:48;;;;;;;10.13;8.13;;;;;;;9.74;100.00;95631.63;5071609;28;20032;-44
2024/02/10 04:48:19;;;;;;;9.57;8.02;;;;;;;9.95;100.00;95628.88;5070942;28;20031;-44
2024/02/10 04:50:45;;;;;;;17.52;10.45;;;;;;;10.13;100.00;95627.47;5072001;28;20043;-44
2024/02/10 04:53:11;;;;;;;11.00;9.07;;;;;;;10.37;100.00;95627.56;5071948;28;20024;-44
2024/02/10 04:55:41;;;;;;;14.30;11.25;;;;;;;10.75;100.00;95630.41;5070458;28;20021;-43
2024/02/10 04:58:07;;;;;;;7.32;6.57;;;;;;;10.79;100.00;95626.16;5070871;28;20021;-44
2024/02/10 05:00:33;;;;;;;12.25;7.28;;;;;;;10.55;100.00;95624.28;5071841;28;20081;-44
2024/02/10 05:03:02;;;;;;;27.02;20.10;;;;;;;10.49;100.00;95629.84;5070566;28;20033;-43
2024/02/10 05:05:28;;;;;;;9.48;7.38;;;;;;;10.44;100.00;95624.63;5072060;28;20028;-43
2024/02/10 05:07:55;;;;;;;13.98;8.45;;;;;;;10.23;100.00;95626.59;5070503;28;20028;-43
2024/02/10 05:10:22;;;;;;;9.50;7.63;;;;;;;10.08;100.00;95625.66;5071764;28;20025;-43
2024/02/10 05:12:49;;;;;;;15.65;11.90;;;;;;;10.17;100.00;95608.28;5070449;28;20450;-43
2024/02/10 05:15:19;;;;;;;13.05;9.00;;;;;;;10.22;100.00;95604.06;5071403;28;20048;-43
2024/02/10 05:17:50;;;;;;;17.15;11.63;;;;;;;10.27;100.00;95598.78;5071688;28;20052;-43
2024/02/10 05:20:21;;;;;;;11.07;9.13;;;;;;;10.27;100.00;95596.94;5071665;28;20020;-43
2024/02/10 05:22:54;;;;;;;19.75;14.23;;;;;;;10.47;100.00;95606.53;5071658;28;20095;-43
2024/02/10 05:25:21;;;;;;;12.15;10.48;;;;;;;10.63;100.00;95606.41;5070353;28;20483;-43
2024/02/10 05:27:47;;;;;;;19.83;16.23;;;;;;;10.41;100.00;95612.88;5071923;28;20017;-43
2024/02/10 05:30:18;;;;;;;15.00;11.35;;;;;;;10.39;100.00;95612.34;5070212;28;20470;-43
2024/02/10 05:32:45;;;;;;;15.40;11.20;;;;;;;10.26;100.00;95608.50;5071538;28;20025;-43
2024/02/10 05:35:20;;;;;;;13.38;11.38;;;;;;;10.34;100.00;95601.91;5070062;28;20029;-43
2024/02/10 05:37:47;;;;;;;14.35;9.38;;;;;;;10.41;100.00;95602.38;5071598;28;20502;-43
2024/02/10 05:40:14;;;;;;;12.75;11.15;;;;;;;10.46;100.00;95588.44;5071444;28;20055;-43
2024/02/10 05:42:42;;;;;;;11.90;10.55;;;;;;;10.42;100.00;95584.81;5071403;28;20107;-43
2024/02/10 05:45:09;;;;;;;16.05;12.50;;;;;;;10.32;100.00;95575.97;5071359;28;20499;-43
2024/02/10 05:47:35;;;;;;;39.78;20.38;;;;;;;10.37;100.00;95577.78;5071388;28;20446;-43
2024/02/10 05:50:05;;;;;;;13.18;10.68;;;;;;;10.41;100.00;95570.91;5071403;28;20050;-43
2024/02/10 05:52:42;;;;;;;106.70;55.30;;;;;;;10.37;100.00;95583.78;5071308;28;20517;-44
2024/02/10 05:55:21;;;;;;;86.75;48.55;;;;;;;10.44;100.00;95575.59;5071281;28;20031;-43
2024/02/10 05:57:50;;;;;;;64.90;39.25;;;;;;;10.62;100.00;95570.72;5088580;28;20032;-44
2024/02/10 06:00:17;;;;;;;88.07;57.70;;;;;;;10.75;100.00;95563.00;5075059;28;20025;-44
2024/02/10 06:02:42;;;;;;;20.58;12.68;;;;;;;10.82;100.00;95561.88;5075044;28;20028;-43
2024/02/10 06:05:09;;;;;;;19.20;10.25;;;;;;;10.70;100.00;95562.25;5075019;28;20392;-43
2024/02/10 06:07:36;;;;;;;16.58;11.45;;;;;;;10.66;100.00;95566.50;5075006;28;20024;-43
2024/02/10 06:10:09;;;;;;;61.63;33.90;;;;;;;10.63;100.00;95556.56;5075137;28;20029;-43
2024/02/10 06:12:39;;;;;;;28.95;16.80;;;;;;;10.51;100.00;95565.59;5074914;28;20036;-43
2024/02/10 06:15:10;;;;;;;24.80;14.48;;;;;;;10.59;100.00;95559.72;5074673;28;20143;-43
2024/02/10 06:17:39;;;;;;;16.15;12.90;;;;;;;10.62;100.00;95561.00;5074821;28;20024;-43
2024/02/10 06:20:12;;;;;;;16.55;11.65;;;;;;;10.67;100.00;95558.34;5074779;28;20158;-43
2024/02/10 06:22:38;;;;;;;100.53;79.93;;;;;;;10.71;100.00;95561.22;5074804;28;20123;-43
2024/02/10 06:25:05;;;;;;;389.08;276.90;;;;;;;10.70;100.00;95568.28;5073315;28;20123;-43
2024/02/10 06:27:34;;;;;;;120.30;65.32;;;;;;;10.62;100.00;95568.88;5074641;28;20028;-43
2024/02/10 06:30:00;;;;;;;196.40;96.22;;;;;;;10.63;100.00;95570.44;5074626;28;20520;-43
2024/02/10 06:32:26;;;;;;;470.65;262.55;;;;;;;10.57;100.00;95566.31;5074539;28;20027;-43
2024/02/10 06:34:53;;;;;;;500.10;251.65;;;;;;;10.53;100.00;95566.09;5073420;28;20398;-43
2024/02/10 06:37:25;;;;;;;528.05;297.50;;;;;;;10.38;100.00;95568.84;5073082;28;20021;-43
2024/02/10 06:39:51;;;;;;;365.13;179.23;;;;;;;10.22;100.00;95564.75;5074498;28;20398;-43
2024/02/10 06:42:17;;;;;;;478.30;251.25;;;;;;;10.06;100.00;95561.47;5074326;28;20035;-43
2024/02/10 06:44:43;;;;;;;499.58;279.63;;;;;;;9.96;100.00;95565.75;5074339;28;20029;-43
2024/02/10 06:47:09;;;;;;;455.25;231.73;;;;;;;10.09;100.00;95568.78;5074233;28;20031;-43
2024/02/10 06:49:38;;;;;;;428.17;223.38;;;;;;;10.32;100.00;95560.25;5074507;28;20029;-43
2024/02/10 06:52:04;;;;;;;549.13;287.98;;;;;;;10.44;100.00;95565.09;5072865;28;20055;-44
2024/02/10 06:54:30;;;;;;;306.75;161.48;;;;;;;10.42;100.00;95571.69;5074065;28;20467;-43
2024/02/10 06:57:01;;;;;;;504.42;265.38;;;;;;;10.41;100.00;95578.78;5074104;28;20099;-44
2024/02/10 06:59:28;;;;;;;232.85;119.45;;;;;;;10.37;100.00;95577.78;5074094;28;20033;-44
2024/02/10 07:01:56;;;;;;;357.92;210.73;;;;;;;10.10;100.00;95576.38;5074029;28;20020;-44
2024/02/10 07:04:23;;;;;;;249.90;146.27;;;;;;;9.90;100.00;95584.38;5072643;28;20032;-44
2024/02/10 07:06:53;;;;;;;137.30;80.70;;;;;;;9.90;100.00;95582.56;5089545;28;20028;-44
2024/02/10 07:09:22;;;;;;;316.48;182.27;;;;;;;10.05;100.00;95576.41;5073466;28;20033;-44
2024/02/10 07:11:50;;;;;;;283.20;155.02;;;;;;;10.01;100.00;95575.41;5073811;28;20103;-44
2024/02/10 07:14:19;;;;;;;258.60;138.43;;;;;;;10.05;100.00;95583.50;5073689;28;20466;-44
2024/02/10 07:16:46;;;;;;;136.80;69.93;;;;;;;10.16;100.00;95583.16;5073522;28;20045;-44
2024/02/10 07:19:13;;;;;;;164.50;93.05;;;;;;;10.31;100.00;95591.97;5073621;28;20021;-44
2024/02/10 07:21:45;;;;;;;640.00;449.98;;;;;;;10.34;100.00;95584.34;5073700;28;20028;-44
2024/02/10 07:24:13;;;;;;;988.85;569.05;;;;;;;10.27;100.00;95588.31;5073587;28;20020;-43
2024/02/10 07:26:39;;;;;;;409.55;235.93;;;;;;;10.28;100.00;95587.25;5073510;28;20094;-44
2024/02/10 07:29:05;;;;;;;89.60;51.78;;;;;;;10.37;100.00;95589.03;5072302;28;20022;-44
2024/02/10 07:31:31;;;;;;;900.00;604.60;;;;;;;10.43;100.00;95589.78;5073634;28;20055;-44
2024/02/10 07:34:01;;;;;;;1348.60;743.63;;;;;;;10.55;100.00;95595.44;5072070;28;20465;-44
2024/02/10 07:36:35;;;;;;;1745.18;890.65;;;;;;;10.72;100.00;95592.38;5073227;28;20032;-44
2024/02/10 07:39:07;;;;;;;1227.63;769.28;;;;;;;10.75;100.00;95591.06;5073286;28;20024;-43
2024/02/10 07:41:43;;;;;;;614.88;529.28;;;;;;;10.90;100.00;95595.38;5073452;28;20495;-43
2024/02/10 07:44:12;;;;;;;325.77;196.70;;;;;;;10.98;100.00;95587.66;5073288;28;20027;-44
2024/02/10 07:46:38;;;;;;;199.75;99.63;;;;;;;10.93;100.00;95585.09;5073129;28;20048;-43
2024/02/10 07:49:07;;;;;;;214.30;114.07;;;;;;;10.79;100.00;95581.56;5073088;28;20498;-43
2024/02/10 07:51:33;;;;;;;125.97;67.22;;;;;;;10.90;100.00;95579.63;5071838;28;20017;-43
2024/02/10 07:53:59;;;;;;;85.07;57.50;;;;;;;10.73;100.00;95586.09;5072999;28;20469;-43
2024/02/10 07:56:29;;;;;;;108.15;70.88;;;;;;;10.52;100.00;95579.47;5073114;28;20036;-43
2024/02/10 07:59:02;;;;;;;58.55;37.17;;;;;;;10.48;100.00;95584.47;5072907;28;20017;-43
2024/02/10 08:01:31;;;;;;;334.73;219.32;;;;;;;10.50;100.00;95587.63;5073155;28;20078;-43
2024/02/10 08:03:57;;;;;;;1999.90;999.90;;;;;;;10.61;100.00;95590.94;5072767;28;20024;-43
2024/02/10 08:06:27;;;;;;;1359.38;636.90;;;;;;;10.66;100.00;95590.88;5072695;28;20029;-43
2024/02/10 08:09:03;;;;;;;489.23;285.92;;;;;;;10.82;100.00;95581.00;5072946;28;20081;-43
2024/02/10 08:11:29;;;;;;;602.33;388.30;;;;;;;11.13;100.00;95580.69;5071311;28;20029;-44
2024/02/10 08:13:56;;;;;;;559.90;354.30;;;;;;;11.52;100.00;95574.44;5072560;28;20040;-44
2024/02/10 08:16:27;;;;;;;381.77;267.48;;;;;;;11.58;100.00;95571.44;5070832;28;20514;-44
2024/02/10 08:18:54;;;;;;;257.52;165.50;;;;;;;11.75;100.00;95568.34;5072394;28;20072;-45
2024/02/10 08:21:26;;;;;;;238.90;157.63;;;;;;;11.83;100.00;95566.13;5071800;28;20016;-45
2024/02/10 08:23:52;;;;;;;214.35;142.32;;;;;;;11.85;100.00;95561.38;5072354;28;20071;-44
2024/02/10 08:26:21;;;;;;;172.40;120.28;;;;;;;11.77;100.00;95563.59;5072344;28;20095;-45
2024/02/10 08:28:58;;;;;;;260.15;183.80;;;;;;;11.84;100.00;95565.84;5072321;28;20020;-45
2024/02/10 08:31:24;;;;;;;197.95;136.10;;;;;;;12.10;100.00;95547.88;5072204;28;20036;-45
2024/02/10 08:33:50;;;;;;;338.48;248.98;;;;;;;12.24;100.00;95547.94;5072246;28;20027;-46
2024/02/10 08:36:19;;;;;;;113.18;78.10;;;;;;;12.35;100.00;95540.63;5072055;28;20035;-45
2024/02/10 08:38:46;;;;;;;157.35;105.78;;;;;;;12.33;100.00;95543.56;5072193;28;20055;-45
2024/02/10 08:41:14;;;;;;;146.05;102.85;;;;;;;12.46;100.00;95536.00;5072111;28;20029;-45
2024/02/10 08:43:47;;;;;;;238.70;170.23;;;;;;;12.57;100.00;95540.00;5072052;28;20032;-45
2024/02/10 08:46:17;;;;;;;141.60;105.00;;;;;;;12.55;100.00;95539.50;5072042;28;20020;-45
2024/02/10 08:48:43;;;;;;;119.63;82.45;;;;;;;12.67;100.00;95541.66;5072008;28;20035;-46
2024/02/10 08:51:12;;;;;;;123.35;85.80;;;;;;;12.88;100.00;95531.56;5070589;28;20029;-46
2024/02/10 08:53:42;;;;;;;202.95;159.82;;;;;;;12.89;100.00;95526.00;5071918;28;20029;-45
2024/02/10 08:56:10;;;;;;;221.18;171.20;;;;;;;12.37;100.00;95533.25;5071797;28;20071;-46
2024/02/10 08:58:40;;;;;;;115.50;83.60;;;;;;;11.89;100.00;95536.13;5071856;28;20027;-48
2024/02/10 09:01:15;;;;;;;166.23;118.75;;;;;;;11.72;100.00;95542.63;5072107;28;20386;-48
2024/02/10 09:03:53;;;;;;;55.58;33.63;;;;;;;11.83;100.00;95535.41;5071867;28;20217;-48
2024/02/10 09:06:22;;;;;;;171.60;108.15;;;;;;;11.93;100.00;95529.22;5072118;28;20441;-48
2024/02/10 09:08:51;;;;;;;88.43;53.40;;;;;;;12.07;100.00;95511.66;5071750;28;20052;-47
2024/02/10 09:11:18;;;;;;;108.60;71.07;;;;;;;12.07;100.00;95508.25;5071702;28;20376;-48
2024/02/10 09:13:45;;;;;;;143.70;96.93;;;;;;;12.09;100.00;95511.38;5070473;28;20565;-47
2024/02/10 09:16:13;;;;;;;162.18;114.85;;;;;;;12.11;100.00;95510.03;5071411;28;20059;-45
2024/02/10 09:18:42;;;;;;;152.90;113.68;;;;;;;12.09;100.00;95516.63;5071764;28;20079;-46
2024/02/10 09:21:09;;;;;;;164.82;112.40;;;;;;;12.11;100.00;95512.66;5071732;28;20032;-46
2024/02/10 09:23:35;;;;;;;198.82;136.73;;;;;;;12.08;100.00;95510.59;5071670;28;20024;-45
2024/02/10 09:26:01;;;;;;;103.28;74.85;;;;;;;11.92;100.00;95517.94;5071735;28;20029;-45
2024/02/10 09:28:29;;;;;;;406.85;266.05;;;;;;;11.68;100.00;95519.84;5071630;28;20013;-45
2024/02/10 09:30:55;;;;;;;276.83;185.90;;;;;;;11.71;100.00;95517.44;5072264;28;20028;-45
2024/02/10 09:33:22;;;;;;;329.48;203.00;;;;;;;11.66;100.00;95514.88;5074428;28;20028;-45
2024/02/10 09:35:51;;;;;;;316.20;204.70;;;;;;;11.66;100.00;95514.09;5075836;28;20029;-45
2024/02/10 09:38:22;;;;;;;165.25;112.75;;;;;;;11.54;100.00;95510.06;5075908;28;20020;-44
2024/02/10 09:40:56;;;;;;;287.15;165.60;;;;;;;11.46;100.00;95509.91;5075586;28;20167;-44
2024/02/10 09:43:34;;;;;;;359.13;214.20;;;;;;;11.46;100.00;95507.28;5075542;28;20032;-44
2024/02/10 09:46:03;;;;;;;176.07;120.70;;;;;;;11.63;100.00;95506.78;5075483;28;20479;-44
2024/02/10 09:48:36;;;;;;;500.98;383.33;;;;;;;11.59;100.00;95504.75;5075403;28;20025;-44
2024/02/10 09:51:03;;;;;;;205.70;158.73;;;;;;;11.76;100.00;95492.94;5075401;28;20033;-44
2024/02/10 09:53:29;;;;;;;285.90;212.35;;;;;;;11.81;100.00;95495.47;5075350;28;20013;-44
2024/02/10 09:55:57;;;;;;;379.83;281.95;;;;;;;11.84;100.00;95494.91;5075103;28;20477;-44
2024/02/10 09:58:28;;;;;;;408.73;301.10;;;;;;;11.88;100.00;95501.16;5075203;28;20099;-44
2024/02/10 10:00:55;;;;;;;313.95;217.50;;;;;;;11.84;100.00;95502.03;5075241;28;20037;-44
2024/02/10 10:03:21;;;;;;;325.90;234.02;;;;;;;11.56;100.00;95499.28;5075394;28;20107;-44
2024/02/10 10:05:49;;;;;;;285.60;193.90;;;;;;;11.57;100.00;95496.38;5075057;28;20052;-44
2024/02/10 10:08:21;;;;;;;1999.90;749.78;;;;;;;11.73;100.00;95488.25;5074904;28;20031;-44
2024/02/10 10:10:49;;;;;;;1961.22;685.13;;;;;;;11.81;100.00;95487.59;5075026;28;20029;-44
2024/02/10 10:13:15;;;;;;;688.28;285.65;;;;;;;11.65;100.00;95494.94;5074871;28;20092;-43
2024/02/10 10:15:41;;;;;;;1523.68;793.83;;;;;;;11.54;100.00;95501.41;5074465;28;20123;-44
2024/02/10 10:18:19;;;;;;;1067.82;735.58;;;;;;;11.38;100.00;95501.59;5074790;28;20556;-45
2024/02/10 10:20:49;;;;;;;1177.72;714.22;;;;;;;11.49;100.00;95501.47;5075053;28;20505;-45
2024/02/10 10:23:16;;;;;;;1426.93;895.97;;;;;;;11.53;100.00;95502.44;5074696;28;20124;-45
2024/02/10 10:25:45;;;;;;;1999.90;999.90;;;;;;;11.58;100.00;95497.13;5073368;28;20074;-45
2024/02/10 10:28:17;;;;;;;1999.90;999.90;;;;;;;11.79;100.00;95492.34;5074654;28;20070;-45
2024/02/10 10:30:45;;;;;;;1955.60;974.83;;;;;;;11.97;100.00;95486.34;5074858;28;20078;-45
2024/02/10 10:33:12;;;;;;;1086.00;637.75;;;;;;;12.22;100.00;95494.09;5074577;28;20107;-45
2024/02/10 10:35:44;;;;;;;505.65;387.63;;;;;;;12.39;100.00;95489.81;5074358;28;20020;-46
2024/02/10 10:38:12;;;;;;;299.90;224.02;;;;;;;12.36;100.00;95500.13;5074780;28;20089;-46
2024/02/10 10:40:38;;;;;;;530.40;370.00;;;;;;;12.17;100.00;95493.09;5074437;28;20482;-46
2024/02/10 10:43:06;;;;;;;125.70;92.82;;;;;;;12.19;100.00;95496.22;5073882;28;20025;-46
2024/02/10 10:45:37;;;;;;;193.82;137.50;;;;;;;12.07;100.00;95493.25;5074298;28;20521;-45
2024/02/10 10:48:04;;;;;;;310.13;204.27;;;;;;;12.04;100.00;95499.09;5074331;28;20502;-46
2024/02/10 10:50:34;;;;;;;273.88;179.88;;;;;;;12.27;100.00;95486.88;5072953;28;20069;-46
2024/02/10 10:53:09;;;;;;;356.73;236.23;;;;;;;12.54;100.00;95486.13;5072909;28;20032;-45
2024/02/10 10:55:56;;;;;;;367.60;244.48;;;;;;;12.67;100.00;95487.19;5074082;28;20039;-46
2024/02/10 10:58:26;;;;;;;324.95;226.60;;;;;;;12.82;100.00;95483.50;5074385;28;20375;-46
2024/02/10 11:00:53;;;;;;;409.70;312.23;;;;;;;12.87;100.00;95493.16;5074169;28;20024;-46
2024/02/10 11:03:19;;;;;;;268.73;127.30;;;;;;;12.84;100.00;95493.72;5074020;28;20025;-46
2024/02/10 11:05:51;;;;;;;1999.90;499.50;;;;;;;12.84;100.00;95489.25;5072787;28;20024;-44
2024/02/10 11:08:25;;;;;;;1999.90;999.90;;;;;;;13.19;100.00;95486.97;5073899;28;20025;-44
2024/02/10 11:11:00;;;;;;;1999.90;551.13;;;;;;;13.45;100.00;95486.44;5074233;28;20394;-44
2024/02/10 11:13:30;;;;;;;906.38;191.30;;;;;;;13.61;100.00;95477.13;5073906;28;20490;-44